createdAt,value
2023-05-01T00:01:13.273Z,17.34
2023-05-01T00:03:41.020Z,17.34
2023-05-01T00:06:10.666Z,17.32
2023-05-01T00:08:38.250Z,17.30
2023-05-01T00:11:09.665Z,17.30
2023-05-01T00:13:37.162Z,17.28
2023-05-01T00:16:09.202Z,17.28
2023-05-01T00:18:36.906Z,17.26
2023-05-01T00:21:04.810Z,17.25
2023-05-01T00:23:33.814Z,17.23
2023-05-01T00:26:01.445Z,17.22
2023-05-01T00:28:29.171Z,17.23
2023-05-01T00:30:58.330Z,17.20
2023-05-01T00:33:25.939Z,17.19
2023-05-01T00:35:53.848Z,17.20
2023-05-01T00:38:21.425Z,17.19
2023-05-01T00:40:50.329Z,17.18
2023-05-01T00:43:17.886Z,17.18
2023-05-01T00:45:46.545Z,17.14
2023-05-01T00:48:15.893Z,17.12
2023-05-01T00:50:45.705Z,17.12
2023-05-01T00:53:13.576Z,17.10
2023-05-01T00:55:43.167Z,17.09
2023-05-01T00:58:13.654Z,17.07
2023-05-01T01:00:41.391Z,17.07
2023-05-01T01:03:09.297Z,17.05
2023-05-01T01:05:42.848Z,17.05
2023-05-01T01:08:20.357Z,17.03
2023-05-01T01:10:53.804Z,17.02
2023-05-01T01:13:29.961Z,17.00
2023-05-01T01:16:05.318Z,16.98
2023-05-01T01:18:38.779Z,16.97
2023-05-01T01:21:11.818Z,16.96
2023-05-01T01:24:22.040Z,16.95
2023-05-01T01:27:34.357Z,16.94
2023-05-01T01:30:33.247Z,16.93
2023-05-01T01:33:28.263Z,16.92
2023-05-01T01:35:59.974Z,16.92
2023-05-01T01:38:38.458Z,16.91
2023-05-01T01:41:10.808Z,16.90
2023-05-01T01:43:41.800Z,16.88
2023-05-01T01:46:11.620Z,16.87
2023-05-01T01:48:43.453Z,16.86
2023-05-01T01:51:16.281Z,16.84
2023-05-01T01:53:50.222Z,16.83
2023-05-01T01:56:20.815Z,16.82
2023-05-01T01:58:49.456Z,16.82
2023-05-01T02:01:20.798Z,16.83
2023-05-01T02:03:49.634Z,16.81
2023-05-01T02:06:18.793Z,16.80
2023-05-01T02:08:49.920Z,16.80
2023-05-01T02:11:19.862Z,16.80
2023-05-01T02:13:48.751Z,16.79
2023-05-01T02:16:17.150Z,16.78
2023-05-01T02:18:47.269Z,16.77
2023-05-01T02:21:16.069Z,16.77
2023-05-01T02:23:45.198Z,16.77
2023-05-01T02:26:17.399Z,16.76
2023-05-01T02:28:45.245Z,16.75
2023-05-01T02:31:12.936Z,16.73
2023-05-01T02:33:41.144Z,16.74
2023-05-01T02:36:08.848Z,16.74
2023-05-01T02:38:36.491Z,16.73
2023-05-01T02:41:07.378Z,16.73
2023-05-01T02:43:36.162Z,16.73
2023-05-01T02:46:05.708Z,16.71
2023-05-01T02:48:34.975Z,16.69
2023-05-01T02:51:03.492Z,16.69
2023-05-01T02:53:32.638Z,16.69
2023-05-01T02:56:00.674Z,16.69
2023-05-01T02:58:32.238Z,16.69
2023-05-01T03:00:59.914Z,16.68
2023-05-01T03:03:28.475Z,16.67
2023-05-01T03:05:56.198Z,16.65
2023-05-01T03:08:24.061Z,16.64
2023-05-01T03:10:51.685Z,16.62
2023-05-01T03:13:19.259Z,16.61
2023-05-01T03:15:48.251Z,16.60
2023-05-01T03:18:15.830Z,16.58
2023-05-01T03:20:52.286Z,16.57
2023-05-01T03:23:20.030Z,16.57
2023-05-01T03:25:47.657Z,16.56
2023-05-01T03:28:15.352Z,16.54
2023-05-01T03:30:43.173Z,16.54
2023-05-01T03:33:12.281Z,16.55
2023-05-01T03:35:39.937Z,16.55
2023-05-01T03:38:07.923Z,16.53
2023-05-01T03:40:35.594Z,16.51
2023-05-01T03:43:03.342Z,16.51
2023-05-01T03:45:30.980Z,16.50
2023-05-01T03:47:58.741Z,16.49
2023-05-01T03:50:27.783Z,16.49
2023-05-01T03:52:55.421Z,16.48
2023-05-01T03:55:22.984Z,16.48
2023-05-01T03:57:50.725Z,16.46
2023-05-01T04:00:18.470Z,16.46
2023-05-01T04:02:46.329Z,16.46
2023-05-01T04:05:14.447Z,16.44
2023-05-01T04:07:43.645Z,16.44
2023-05-01T04:10:11.392Z,16.41
2023-05-01T04:12:39.055Z,16.40
2023-05-01T04:15:08.456Z,16.39
2023-05-01T04:17:36.667Z,16.40
2023-05-01T04:20:06.130Z,16.39
2023-05-01T04:22:33.846Z,16.39
2023-05-01T04:25:02.842Z,16.39
2023-05-01T04:27:30.579Z,16.39
2023-05-01T04:29:58.818Z,16.37
2023-05-01T04:32:26.689Z,16.36
2023-05-01T04:34:54.320Z,16.36
2023-05-01T04:37:21.926Z,16.36
2023-05-01T04:39:50.823Z,16.36
2023-05-01T04:42:19.725Z,16.36
2023-05-01T04:44:47.387Z,16.36
2023-05-01T04:47:14.939Z,16.35
2023-05-01T04:49:42.490Z,16.34
2023-05-01T04:52:10.620Z,16.35
2023-05-01T04:54:38.492Z,16.34
2023-05-01T04:57:06.117Z,16.34
2023-05-01T04:59:35.082Z,16.34
2023-05-01T05:02:02.785Z,16.34
2023-05-01T05:04:30.452Z,16.35
2023-05-01T05:06:58.137Z,16.34
2023-05-01T05:09:25.904Z,16.35
2023-05-01T05:11:53.567Z,16.37
2023-05-01T05:14:21.589Z,16.37
2023-05-01T05:16:50.745Z,16.37
2023-05-01T05:19:18.819Z,16.37
2023-05-01T05:21:46.433Z,16.36
2023-05-01T05:24:14.565Z,16.37
2023-05-01T05:26:42.140Z,16.37
2023-05-01T05:29:09.662Z,16.38
2023-05-01T05:31:37.362Z,16.37
2023-05-01T05:34:06.474Z,16.38
2023-05-01T05:36:35.398Z,16.39
2023-05-01T05:39:03.504Z,16.40
2023-05-01T05:41:31.084Z,16.41
2023-05-01T05:43:58.687Z,16.43
2023-05-01T05:46:26.406Z,16.43
2023-05-01T05:48:54.112Z,16.43
2023-05-01T05:51:23.008Z,16.43
2023-05-01T05:53:50.632Z,16.43
2023-05-01T05:56:18.257Z,16.44
2023-05-01T05:58:45.957Z,16.45
2023-05-01T06:01:14.969Z,16.48
2023-05-01T06:03:42.644Z,16.49
2023-05-01T06:06:10.387Z,16.53
2023-05-01T06:08:39.581Z,16.54
2023-05-01T06:11:07.579Z,16.56
2023-05-01T06:13:35.354Z,16.57
2023-05-01T06:16:03.560Z,16.57
2023-05-01T06:18:31.290Z,16.57
2023-05-01T06:20:59.899Z,16.57
2023-05-01T06:23:27.469Z,16.59
2023-05-01T06:25:56.595Z,16.58
2023-05-01T06:28:24.140Z,16.57
2023-05-01T06:30:51.834Z,16.55
2023-05-01T06:33:19.808Z,16.53
2023-05-01T06:35:47.524Z,16.52
2023-05-01T06:38:15.370Z,16.54
2023-05-01T06:40:43.012Z,16.55
2023-05-01T06:43:12.030Z,16.57
2023-05-01T06:45:39.882Z,16.59
2023-05-01T06:48:07.664Z,16.60
2023-05-01T06:50:35.517Z,16.60
2023-05-01T06:53:03.159Z,16.60
2023-05-01T06:55:32.736Z,16.59
2023-05-01T06:58:04.855Z,16.58
2023-05-01T07:00:41.503Z,16.58
2023-05-01T07:03:09.211Z,16.58
2023-05-01T07:05:36.835Z,16.58
2023-05-01T07:08:04.618Z,16.59
2023-05-01T07:10:32.180Z,16.59
2023-05-01T07:13:00.731Z,16.58
2023-05-01T07:15:28.346Z,16.57
2023-05-01T07:17:58.234Z,16.55
2023-05-01T07:20:26.155Z,16.56
2023-05-01T07:22:53.780Z,16.56
2023-05-01T07:25:21.494Z,16.55
2023-05-01T07:27:49.172Z,16.58
2023-05-01T07:30:16.779Z,16.60
2023-05-01T07:32:45.087Z,16.60
2023-05-01T07:35:14.064Z,16.61
2023-05-01T07:37:41.614Z,16.62
2023-05-01T07:40:09.676Z,16.64
2023-05-01T07:42:37.314Z,16.64
2023-05-01T07:45:05.576Z,16.67
2023-05-01T07:47:33.496Z,16.68
2023-05-01T07:50:01.134Z,16.71
2023-05-01T07:52:31.000Z,16.71
2023-05-01T07:54:58.595Z,16.73
2023-05-01T07:57:26.264Z,16.74
2023-05-01T07:59:55.780Z,16.77
2023-05-01T08:02:23.943Z,16.79
2023-05-01T08:04:51.904Z,16.80
2023-05-01T08:07:19.697Z,16.78
2023-05-01T08:09:48.680Z,16.80
2023-05-01T08:12:16.291Z,16.82
2023-05-01T08:14:43.885Z,16.82
2023-05-01T08:17:11.505Z,16.86
2023-05-01T08:19:39.170Z,16.87
2023-05-01T08:22:06.798Z,16.87
2023-05-01T08:24:34.384Z,16.92
2023-05-01T08:27:03.422Z,16.96
2023-05-01T08:29:31.101Z,17.01
2023-05-01T08:31:59.633Z,17.05
2023-05-01T08:34:27.303Z,17.06
2023-05-01T08:36:54.885Z,17.09
2023-05-01T08:39:22.515Z,17.09
2023-05-01T08:41:50.087Z,17.11
2023-05-01T08:44:21.330Z,17.13
2023-05-01T08:46:57.769Z,17.13
2023-05-01T08:49:28.133Z,17.17
2023-05-01T08:51:56.868Z,17.20
2023-05-01T08:54:25.820Z,17.22
2023-05-01T08:56:54.898Z,17.23
2023-05-01T08:59:26.131Z,17.24
2023-05-01T09:01:53.927Z,17.29
2023-05-01T09:04:22.157Z,17.32
2023-05-01T09:06:50.853Z,17.36
2023-05-01T09:09:18.577Z,17.38
2023-05-01T09:11:46.213Z,17.40
2023-05-01T09:14:13.955Z,17.42
2023-05-01T09:16:43.038Z,17.42
2023-05-01T09:19:10.950Z,17.38
2023-05-01T09:21:38.850Z,17.33
2023-05-01T09:24:07.658Z,17.33
2023-05-01T09:26:38.382Z,17.35
2023-05-01T09:29:06.185Z,17.38
2023-05-01T09:31:34.813Z,17.36
2023-05-01T09:34:04.968Z,17.38
2023-05-01T09:36:34.344Z,17.45
2023-05-01T09:39:02.783Z,17.53
2023-05-01T09:41:31.581Z,17.58
2023-05-01T09:44:00.140Z,17.64
2023-05-01T09:46:27.966Z,17.65
2023-05-01T09:48:57.265Z,17.66
2023-05-01T09:51:27.988Z,17.68
2023-05-01T09:53:57.523Z,17.72
2023-05-01T09:56:26.573Z,17.78
2023-05-01T09:58:56.824Z,17.84
2023-05-01T10:01:40.973Z,17.81
2023-05-01T10:04:09.932Z,17.75
2023-05-01T10:06:39.660Z,17.69
2023-05-01T10:09:16.353Z,17.70
2023-05-01T10:11:53.595Z,17.76
2023-05-01T10:14:23.838Z,17.80
2023-05-01T10:16:52.740Z,17.81
2023-05-01T10:19:20.906Z,17.80
2023-05-01T10:21:50.190Z,17.80
2023-05-01T10:24:18.400Z,17.83
2023-05-01T10:26:49.897Z,17.86
2023-05-01T10:29:20.162Z,17.86
2023-05-01T10:31:47.898Z,17.92
2023-05-01T10:34:19.091Z,17.95
2023-05-01T10:36:54.773Z,17.98
2023-05-01T10:39:33.066Z,18.00
2023-05-01T10:42:11.241Z,18.00
2023-05-01T10:44:39.235Z,18.01
2023-05-01T10:47:44.282Z,18.07
2023-05-01T10:50:15.853Z,18.11
2023-05-01T10:53:20.933Z,18.18
2023-05-01T10:55:49.837Z,18.15
2023-05-01T10:58:51.651Z,18.14
2023-05-01T11:01:30.087Z,18.16
2023-05-01T11:03:58.763Z,18.14
2023-05-01T11:06:27.111Z,18.24
2023-05-01T11:08:56.778Z,18.38
2023-05-01T11:11:49.224Z,18.54
2023-05-01T11:14:18.123Z,18.60
2023-05-01T11:16:48.799Z,18.63
2023-05-01T11:19:49.002Z,18.60
2023-05-01T11:22:16.910Z,18.60
2023-05-01T11:24:46.300Z,18.63
2023-05-01T11:27:18.008Z,18.64
2023-05-01T11:29:49.499Z,18.65
2023-05-01T11:32:25.139Z,18.69
2023-05-01T11:34:53.948Z,18.75
2023-05-01T11:37:21.989Z,18.77
2023-05-01T11:39:52.558Z,18.74
2023-05-01T11:42:23.339Z,18.69
2023-05-01T11:45:07.683Z,18.70
2023-05-01T11:47:35.588Z,18.73
2023-05-01T11:50:03.525Z,18.79
2023-05-01T11:52:31.251Z,18.78
2023-05-01T11:55:00.746Z,18.73
2023-05-01T11:57:28.539Z,18.70
2023-05-01T11:59:56.212Z,18.74
2023-05-01T12:02:24.011Z,18.80
2023-05-01T12:04:51.991Z,18.83
2023-05-01T12:07:23.242Z,18.89
2023-05-01T12:09:52.333Z,18.91
2023-05-01T12:12:21.481Z,18.89
2023-05-01T12:14:49.075Z,18.84
2023-05-01T12:17:16.789Z,18.82
2023-05-01T12:19:49.648Z,18.88
2023-05-01T12:22:17.744Z,18.94
2023-05-01T12:24:52.745Z,18.98
2023-05-01T12:27:22.276Z,19.00
2023-05-01T12:29:50.277Z,19.00
2023-05-01T12:32:18.525Z,18.95
2023-05-01T12:34:46.838Z,18.90
2023-05-01T12:37:14.493Z,18.86
2023-05-01T12:39:44.823Z,18.86
2023-05-01T12:42:14.166Z,18.86
2023-05-01T12:44:44.267Z,18.86
2023-05-01T12:47:13.816Z,18.87
2023-05-01T12:49:41.911Z,18.90
2023-05-01T12:52:09.896Z,18.92
2023-05-01T12:54:39.775Z,18.97
2023-05-01T12:57:08.968Z,19.00
2023-05-01T12:59:38.275Z,19.00
2023-05-01T13:02:10.577Z,18.99
2023-05-01T13:04:38.407Z,18.98
2023-05-01T13:07:12.598Z,19.02
2023-05-01T13:09:40.440Z,19.03
2023-05-01T13:12:09.716Z,19.03
2023-05-01T13:14:38.858Z,18.97
2023-05-01T13:17:09.430Z,18.92
2023-05-01T13:19:37.756Z,18.87
2023-05-01T13:22:05.922Z,18.81
2023-05-01T13:24:39.061Z,18.75
2023-05-01T13:27:07.678Z,18.73
2023-05-01T13:29:36.192Z,18.72
2023-05-01T13:32:06.245Z,18.73
2023-05-01T13:34:37.430Z,18.74
2023-05-01T13:37:05.154Z,18.71
2023-05-01T13:39:32.821Z,18.69
2023-05-01T13:42:04.029Z,18.68
2023-05-01T13:44:32.087Z,18.70
2023-05-01T13:47:02.518Z,18.71
2023-05-01T13:49:30.102Z,18.74
2023-05-01T13:51:59.120Z,18.74
2023-05-01T13:54:26.873Z,18.75
2023-05-01T13:56:54.544Z,18.72
2023-05-01T13:59:22.473Z,18.71
2023-05-01T14:01:50.162Z,18.72
2023-05-01T14:04:21.103Z,18.73
2023-05-01T14:06:49.175Z,18.75
2023-05-01T14:09:19.404Z,18.76
2023-05-01T14:11:48.649Z,18.77
2023-05-01T14:14:17.066Z,18.78
2023-05-01T14:16:48.848Z,18.78
2023-05-01T14:19:18.090Z,18.76
2023-05-01T14:21:46.752Z,18.76
2023-05-01T14:24:17.734Z,18.73
2023-05-01T14:26:49.262Z,18.70
2023-05-01T14:29:23.809Z,18.65
2023-05-01T14:31:52.475Z,18.58
2023-05-01T14:34:21.358Z,18.56
2023-05-01T14:36:48.960Z,18.54
2023-05-01T14:39:16.752Z,18.54
2023-05-01T14:41:45.985Z,18.55
2023-05-01T14:44:16.448Z,18.57
2023-05-01T14:46:49.327Z,18.54
2023-05-01T14:49:21.584Z,18.54
2023-05-01T14:51:49.747Z,18.50
2023-05-01T14:54:17.446Z,18.39
2023-05-01T14:56:47.925Z,18.30
2023-05-01T14:59:15.534Z,18.27
2023-05-01T15:01:43.979Z,18.22
2023-05-01T15:04:12.572Z,18.21
2023-05-01T15:06:40.455Z,18.19
2023-05-01T15:09:08.135Z,18.14
2023-05-01T15:11:35.733Z,18.11
2023-05-01T15:14:05.818Z,18.10
2023-05-01T15:16:33.617Z,18.09
2023-05-01T15:19:01.178Z,18.06
2023-05-01T15:21:28.725Z,18.08
2023-05-01T15:23:56.309Z,18.09
2023-05-01T15:26:23.845Z,18.11
2023-05-01T15:28:51.455Z,18.05
2023-05-01T15:31:20.381Z,18.05
2023-05-01T15:33:48.005Z,18.09
2023-05-01T15:36:15.740Z,18.11
2023-05-01T15:38:43.320Z,18.12
2023-05-01T15:41:10.866Z,18.12
2023-05-01T15:43:38.802Z,18.12
2023-05-01T15:46:06.599Z,18.10
2023-05-01T15:48:35.720Z,18.09
2023-05-01T15:51:04.380Z,18.05
2023-05-01T15:53:32.015Z,18.02
2023-05-01T15:55:59.646Z,18.01
2023-05-01T15:58:27.294Z,18.00
2023-05-01T16:00:54.971Z,18.00
2023-05-01T16:03:22.781Z,17.98
2023-05-01T16:05:52.425Z,17.96
2023-05-01T16:08:20.068Z,17.93
2023-05-01T16:10:47.652Z,17.92
2023-05-01T16:13:15.398Z,17.90
2023-05-01T16:15:42.954Z,17.87
2023-05-01T16:18:15.334Z,17.86
2023-05-01T16:20:44.212Z,17.83
2023-05-01T16:23:15.278Z,17.82
2023-05-01T16:25:43.515Z,17.83
2023-05-01T16:28:12.257Z,17.80
2023-05-01T16:30:42.229Z,17.77
2023-05-01T16:33:18.227Z,17.76
2023-05-01T16:35:47.884Z,17.76
2023-05-01T16:38:17.012Z,17.73
2023-05-01T16:40:45.102Z,17.69
2023-05-01T16:43:13.070Z,17.67
2023-05-01T16:45:41.855Z,17.64
2023-05-01T16:48:09.533Z,17.61
2023-05-01T16:50:41.097Z,17.61
2023-05-01T16:53:08.831Z,17.58
2023-05-01T16:55:37.787Z,17.57
2023-05-01T16:58:06.734Z,17.56
2023-05-01T17:00:34.345Z,17.54
2023-05-01T17:03:02.117Z,17.51
2023-05-01T17:05:29.842Z,17.49
2023-05-01T17:07:57.517Z,17.48
2023-05-01T17:10:25.119Z,17.47
2023-05-01T17:12:54.054Z,17.47
2023-05-01T17:15:21.633Z,17.47
2023-05-01T17:17:49.295Z,17.45
2023-05-01T17:20:17.096Z,17.43
2023-05-01T17:22:45.584Z,17.40
2023-05-01T17:25:13.232Z,17.37
2023-05-01T17:27:40.808Z,17.35
2023-05-01T17:30:10.729Z,17.33
2023-05-01T17:32:38.348Z,17.32
2023-05-01T17:35:07.179Z,17.30
2023-05-01T17:37:34.733Z,17.27
2023-05-01T17:40:04.900Z,17.28
2023-05-01T17:42:32.538Z,17.27
2023-05-01T17:45:00.136Z,17.26
2023-05-01T17:47:29.195Z,17.24
2023-05-01T17:49:56.913Z,17.22
2023-05-01T17:52:24.514Z,17.21
2023-05-01T17:54:52.093Z,17.21
2023-05-01T17:57:19.631Z,17.19
2023-05-01T17:59:47.230Z,17.18
2023-05-01T18:02:14.856Z,17.15
2023-05-01T18:04:43.934Z,17.13
2023-05-01T18:07:11.939Z,17.11
2023-05-01T18:09:39.526Z,17.07
2023-05-01T18:12:07.365Z,17.06
2023-05-01T18:14:34.992Z,17.04
2023-05-01T18:17:02.624Z,17.03
2023-05-01T18:19:30.312Z,17.02
2023-05-01T18:21:59.986Z,16.99
2023-05-01T18:24:27.550Z,16.96
2023-05-01T18:26:55.187Z,16.94
2023-05-01T18:29:23.025Z,16.93
2023-05-01T18:31:51.613Z,16.91
2023-05-01T18:34:19.996Z,16.89
2023-05-01T18:36:48.376Z,16.89
2023-05-01T18:39:17.443Z,16.87
2023-05-01T18:41:45.121Z,16.86
2023-05-01T18:44:12.698Z,16.86
2023-05-01T18:46:40.388Z,16.84
2023-05-01T18:49:08.140Z,16.83
2023-05-01T18:51:35.989Z,16.83
2023-05-01T18:54:04.938Z,16.83
2023-05-01T18:56:34.249Z,16.83
2023-05-01T18:59:01.949Z,16.81
2023-05-01T19:01:29.653Z,16.79
2023-05-01T19:03:59.301Z,16.79
2023-05-01T19:06:27.243Z,16.76
2023-05-01T19:08:55.358Z,16.77
2023-05-01T19:11:22.987Z,16.74
2023-05-01T19:13:52.595Z,16.73
2023-05-01T19:16:20.287Z,16.72
2023-05-01T19:18:48.618Z,16.71
2023-05-01T19:21:16.518Z,16.72
2023-05-01T19:23:44.969Z,16.68
2023-05-01T19:26:13.668Z,16.67
2023-05-01T19:28:41.936Z,16.68
2023-05-01T19:31:12.424Z,16.66
2023-05-01T19:33:42.011Z,16.65
2023-05-01T19:36:09.740Z,16.65
2023-05-01T19:38:37.374Z,16.63
2023-05-01T19:41:05.005Z,16.63
2023-05-01T19:43:32.613Z,16.61
2023-05-01T19:46:00.248Z,16.60
2023-05-01T19:48:29.217Z,16.60
2023-05-01T19:50:56.810Z,16.59
2023-05-01T19:53:24.505Z,16.59
2023-05-01T19:55:52.137Z,16.59
2023-05-01T19:58:19.696Z,16.56
2023-05-01T20:00:47.241Z,16.54
2023-05-01T20:03:15.602Z,16.55
2023-05-01T20:05:44.680Z,16.55
2023-05-01T20:08:12.730Z,16.54
2023-05-01T20:10:40.463Z,16.53
2023-05-01T20:13:10.458Z,16.52
2023-05-01T20:15:39.080Z,16.51
2023-05-01T20:18:07.044Z,16.49
2023-05-01T20:20:34.960Z,16.48
2023-05-01T20:23:14.467Z,16.48
2023-05-01T20:25:42.570Z,16.46
2023-05-01T20:28:12.904Z,16.46
2023-05-01T20:30:44.510Z,16.46
2023-05-01T20:33:13.857Z,16.43
2023-05-01T20:35:41.652Z,16.42
2023-05-01T20:38:09.338Z,16.41
2023-05-01T20:40:39.940Z,16.41
2023-05-01T20:43:07.819Z,16.40
2023-05-01T20:45:35.514Z,16.39
2023-05-01T20:48:03.298Z,16.37
2023-05-01T20:50:30.923Z,16.37
2023-05-01T20:52:58.503Z,16.36
2023-05-01T20:55:27.976Z,16.36
2023-05-01T20:57:56.853Z,16.37
2023-05-01T21:00:24.477Z,16.36
2023-05-01T21:02:52.771Z,16.36
2023-05-01T21:05:20.599Z,16.36
2023-05-01T21:07:48.842Z,16.35
2023-05-01T21:10:16.678Z,16.32
2023-05-01T21:12:44.417Z,16.32
2023-05-01T21:15:13.581Z,16.29
2023-05-01T21:17:43.164Z,16.27
2023-05-01T21:20:13.654Z,16.28
2023-05-01T21:22:42.430Z,16.28
2023-05-01T21:25:10.616Z,16.26
2023-05-01T21:27:41.330Z,16.27
2023-05-01T21:30:14.694Z,16.25
2023-05-01T21:32:44.577Z,16.24
2023-05-01T21:35:16.713Z,16.23
2023-05-01T21:37:45.661Z,16.22
2023-05-01T21:40:14.910Z,16.21
2023-05-01T21:42:43.158Z,16.19
2023-05-01T21:45:14.244Z,16.21
2023-05-01T21:47:46.745Z,16.20
2023-05-01T21:50:16.132Z,16.19
2023-05-01T21:52:45.805Z,16.17
2023-05-01T21:55:19.082Z,16.16
2023-05-01T21:57:47.257Z,16.14
2023-05-01T22:00:15.800Z,16.13
2023-05-01T22:02:46.609Z,16.12
2023-05-01T22:05:16.343Z,16.11
2023-05-01T22:07:45.639Z,16.10
2023-05-01T22:10:15.607Z,16.10
2023-05-01T22:12:44.548Z,16.10
2023-05-01T22:15:15.371Z,16.10
2023-05-01T22:17:43.264Z,16.08
2023-05-01T22:20:12.837Z,16.08
2023-05-01T22:22:41.623Z,16.07
2023-05-01T22:25:10.757Z,16.06
2023-05-01T22:27:38.721Z,16.06
2023-05-01T22:30:08.096Z,16.04
2023-05-01T22:32:36.500Z,16.05
2023-05-01T22:35:04.701Z,16.05
2023-05-01T22:37:33.681Z,16.04
2023-05-01T22:40:01.491Z,16.04
2023-05-01T22:42:29.308Z,16.03
2023-05-01T22:44:56.877Z,16.02
2023-05-01T22:47:24.497Z,16.02
2023-05-01T22:49:52.220Z,16.02
2023-05-01T22:52:19.921Z,16.01
2023-05-01T22:54:50.436Z,16.01
2023-05-01T22:57:18.067Z,16.00
2023-05-01T22:59:45.867Z,15.99
2023-05-01T23:02:16.273Z,15.98
2023-05-01T23:04:44.187Z,15.96
2023-05-01T23:07:13.906Z,15.96
2023-05-01T23:09:41.531Z,15.95
2023-05-01T23:12:22.422Z,15.94
2023-05-01T23:14:50.087Z,15.94
2023-05-01T23:17:18.177Z,15.94
2023-05-01T23:19:46.782Z,15.93
2023-05-01T23:22:14.664Z,15.92
2023-05-01T23:24:44.680Z,15.93
2023-05-01T23:27:16.685Z,15.92
2023-05-01T23:29:54.073Z,15.92
2023-05-01T23:32:26.521Z,15.90
2023-05-01T23:34:54.563Z,15.90
2023-05-01T23:37:22.337Z,15.89
2023-05-01T23:39:50.158Z,15.88
2023-05-01T23:42:19.155Z,15.87
2023-05-01T23:44:47.014Z,15.86
2023-05-01T23:47:14.932Z,15.86
2023-05-01T23:49:42.957Z,15.85
2023-05-01T23:52:10.638Z,15.86
2023-05-01T23:54:38.206Z,15.85
2023-05-01T23:57:05.838Z,15.83
2023-05-01T23:59:35.332Z,15.83
